createdAt,value
2023-05-24T00:02:09.015Z,14.80
2023-05-24T00:07:11.262Z,14.70
2023-05-24T00:12:13.017Z,14.63
2023-05-24T00:17:15.060Z,14.57
2023-05-24T00:22:17.429Z,14.48
2023-05-24T00:27:19.160Z,14.37
2023-05-24T00:32:21.079Z,14.26
2023-05-24T00:37:23.504Z,14.21
2023-05-24T00:42:25.602Z,14.22
2023-05-24T00:47:27.773Z,14.26
2023-05-24T00:52:29.741Z,14.28
2023-05-24T00:57:31.628Z,14.31
2023-05-24T01:02:33.942Z,14.32
2023-05-24T01:07:48.672Z,14.34
2023-05-24T01:13:05.986Z,14.36
2023-05-24T01:18:14.010Z,14.35
2023-05-24T01:23:32.300Z,14.38
2023-05-24T01:28:35.557Z,14.38
2023-05-24T01:33:42.312Z,14.38
2023-05-24T01:38:45.189Z,14.39
2023-05-24T01:44:00.530Z,14.40
2023-05-24T01:49:08.200Z,14.42
2023-05-24T01:54:13.096Z,14.43
2023-05-24T01:59:15.783Z,14.43
2023-05-24T02:04:18.324Z,14.42
2023-05-24T02:09:20.094Z,14.45
2023-05-24T02:14:22.174Z,14.48
2023-05-24T02:19:24.476Z,14.50
2023-05-24T02:24:26.901Z,14.50
2023-05-24T02:29:28.655Z,14.46
2023-05-24T02:34:31.054Z,14.46
2023-05-24T02:39:32.841Z,14.47
2023-05-24T02:44:35.920Z,14.46
2023-05-24T02:49:37.714Z,14.46
2023-05-24T02:54:39.614Z,14.46
2023-05-24T02:59:41.457Z,14.47
2023-05-24T03:04:43.484Z,14.50
2023-05-24T03:09:46.679Z,14.51
2023-05-24T03:14:48.411Z,14.51
2023-05-24T03:19:50.793Z,14.51
2023-05-24T03:24:53.269Z,14.48
2023-05-24T03:29:55.799Z,14.42
2023-05-24T03:35:01.567Z,14.35
2023-05-24T03:40:05.263Z,14.15
2023-05-24T03:45:37.768Z,13.89
2023-05-24T03:50:41.952Z,13.67
2023-05-24T03:55:43.953Z,13.51
2023-05-24T04:00:47.497Z,13.39
2023-05-24T04:07:15.472Z,13.21
2023-05-24T04:12:17.321Z,13.10
2023-05-24T04:17:19.454Z,12.91
2023-05-24T04:22:22.667Z,12.74
2023-05-24T04:27:26.241Z,12.61
2023-05-24T04:32:30.526Z,12.54
2023-05-24T04:37:33.394Z,12.39
2023-05-24T04:42:35.839Z,12.23
2023-05-24T04:47:37.647Z,12.08
2023-05-24T04:52:39.474Z,12.01
2023-05-24T04:57:41.377Z,12.00
2023-05-24T05:02:43.418Z,12.02
2023-05-24T05:07:45.556Z,12.04
2023-05-24T05:12:47.257Z,12.07
2023-05-24T05:17:49.472Z,12.06
2023-05-24T05:22:51.317Z,11.98
2023-05-24T05:27:53.099Z,11.93
2023-05-24T05:32:54.963Z,11.90
2023-05-24T05:37:56.923Z,11.87
2023-05-24T05:42:58.667Z,11.74
2023-05-24T05:48:00.702Z,11.63
2023-05-24T05:53:02.468Z,11.52
2023-05-24T05:58:04.230Z,11.49
2023-05-24T06:03:06.635Z,11.50
2023-05-24T06:08:08.554Z,11.56
2023-05-24T06:13:10.282Z,11.63
2023-05-24T06:18:13.748Z,11.66
2023-05-24T06:23:15.548Z,11.68
2023-05-24T06:28:17.679Z,11.72
2023-05-24T06:33:19.716Z,11.68
2023-05-24T06:38:21.656Z,11.69
2023-05-24T06:43:23.425Z,11.66
2023-05-24T06:48:25.215Z,11.62
2023-05-24T06:53:27.574Z,11.67
2023-05-24T06:58:34.314Z,11.70
2023-05-24T07:03:36.381Z,11.72
2023-05-24T07:08:38.098Z,11.71
2023-05-24T07:13:39.902Z,11.74
2023-05-24T07:18:42.050Z,11.82
2023-05-24T07:23:44.000Z,11.90
2023-05-24T07:28:46.009Z,12.04
2023-05-24T07:33:47.676Z,12.06
2023-05-24T07:38:49.562Z,12.06
2023-05-24T07:43:57.634Z,12.21
2023-05-24T07:48:59.465Z,12.15
2023-05-24T07:54:01.668Z,12.19
2023-05-24T07:59:04.941Z,12.41
2023-05-24T08:04:08.809Z,12.36
2023-05-24T08:09:10.739Z,12.39
2023-05-24T08:14:12.488Z,12.50
2023-05-24T08:19:14.339Z,12.66
2023-05-24T08:24:16.521Z,12.86
2023-05-24T08:29:18.616Z,12.94
2023-05-24T08:34:20.652Z,12.86
2023-05-24T08:39:22.805Z,13.06
2023-05-24T08:44:25.158Z,13.15
2023-05-24T08:49:32.910Z,13.31
2023-05-24T08:54:36.813Z,13.60
2023-05-24T08:59:42.119Z,13.79
2023-05-24T09:04:46.392Z,13.82
2023-05-24T09:10:06.938Z,13.78
2023-05-24T09:15:09.216Z,13.94
2023-05-24T09:20:11.853Z,14.13
2023-05-24T09:25:15.283Z,14.41
2023-05-24T09:30:17.324Z,14.51
2023-05-24T09:35:19.502Z,14.38
2023-05-24T09:40:21.782Z,14.67
2023-05-24T09:45:24.527Z,14.74
2023-05-24T09:50:27.165Z,14.53
2023-05-24T09:55:29.957Z,14.23
2023-05-24T10:00:40.150Z,13.83
2023-05-24T10:05:45.461Z,13.55
2023-05-24T10:10:47.845Z,13.35
2023-05-24T10:15:49.667Z,13.34
2023-05-24T10:20:54.214Z,13.74
2023-05-24T10:26:11.264Z,14.23
2023-05-24T10:31:34.632Z,14.33
2023-05-24T10:36:40.050Z,14.80
2023-05-24T10:41:42.422Z,15.65
2023-05-24T10:47:17.273Z,15.97
2023-05-24T10:52:19.852Z,16.00
2023-05-24T10:57:23.280Z,16.08
2023-05-24T11:02:28.441Z,16.29
2023-05-24T11:07:33.397Z,15.94
2023-05-24T11:12:38.943Z,15.61
2023-05-24T11:18:09.376Z,15.95
2023-05-24T11:23:11.667Z,16.34
2023-05-24T11:28:13.910Z,16.50
2023-05-24T11:33:20.562Z,16.84
2023-05-24T11:38:24.798Z,16.80
2023-05-24T11:43:27.177Z,16.56
2023-05-24T11:48:29.917Z,16.46
2023-05-24T11:53:31.726Z,16.72
2023-05-24T11:58:52.749Z,16.97
2023-05-24T12:03:55.241Z,16.84
2023-05-24T12:08:57.327Z,16.82
2023-05-24T12:13:59.468Z,17.19
2023-05-24T12:19:06.998Z,17.31
2023-05-24T12:24:13.787Z,17.37
2023-05-24T12:29:16.263Z,17.70
2023-05-24T12:34:19.773Z,17.79
2023-05-24T12:39:36.653Z,17.42
2023-05-24T12:44:39.267Z,16.89
2023-05-24T12:49:41.041Z,16.00
2023-05-24T12:54:42.775Z,15.54
2023-05-24T12:59:44.584Z,15.38
2023-05-24T13:04:46.513Z,15.27
2023-05-24T13:09:49.616Z,15.25
2023-05-24T13:14:52.882Z,15.33
2023-05-24T13:19:55.697Z,15.40
2023-05-24T13:24:57.449Z,15.31
2023-05-24T13:30:01.190Z,15.28
2023-05-24T13:35:05.864Z,15.41
2023-05-24T13:40:11.128Z,15.64
2023-05-24T13:45:12.925Z,15.69
2023-05-24T13:50:14.869Z,15.58
2023-05-24T13:55:16.687Z,15.51
2023-05-24T14:00:19.121Z,15.44
2023-05-24T14:05:26.881Z,15.28
2023-05-24T14:10:30.159Z,14.94
2023-05-24T14:15:33.303Z,14.85
2023-05-24T14:20:38.157Z,14.77
2023-05-24T14:25:42.273Z,14.74
2023-05-24T14:30:44.502Z,14.83
2023-05-24T14:35:46.644Z,14.93
2023-05-24T14:40:48.840Z,15.02
2023-05-24T14:45:50.724Z,14.90
2023-05-24T14:50:52.528Z,14.79
2023-05-24T14:55:54.519Z,14.77
2023-05-24T15:00:56.617Z,14.70
2023-05-24T15:05:59.003Z,14.63
2023-05-24T15:11:01.093Z,14.50
2023-05-24T15:16:02.944Z,14.37
2023-05-24T15:21:04.707Z,14.38
2023-05-24T15:26:06.473Z,14.44
2023-05-24T15:31:08.509Z,14.42
2023-05-24T15:36:14.277Z,14.48
2023-05-24T15:41:16.042Z,14.54
2023-05-24T15:46:17.862Z,14.69
2023-05-24T15:56:24.726Z,14.70
2023-05-24T16:01:26.525Z,14.68
2023-05-24T16:06:28.685Z,14.72
2023-05-24T16:11:30.802Z,14.80
2023-05-24T16:16:32.587Z,14.67
2023-05-24T16:21:34.407Z,14.59
2023-05-24T16:26:36.369Z,14.47
2023-05-24T16:31:38.231Z,14.41
2023-05-24T16:36:40.273Z,14.30
2023-05-24T16:41:42.696Z,14.20
2023-05-24T16:46:45.652Z,14.17
2023-05-24T16:51:47.593Z,14.10
2023-05-24T16:56:49.376Z,13.92
2023-05-24T17:01:51.754Z,13.83
2023-05-24T17:06:53.876Z,13.81
2023-05-24T17:11:55.649Z,13.75
2023-05-24T17:16:57.376Z,13.70
2023-05-24T17:21:59.105Z,13.69
2023-05-24T17:27:02.044Z,13.59
2023-05-24T17:32:04.578Z,13.60
2023-05-24T17:37:06.360Z,13.57
2023-05-24T17:42:08.214Z,13.49
2023-05-24T17:47:09.915Z,13.43
2023-05-24T17:52:14.608Z,13.40
2023-05-24T17:57:16.486Z,13.41
2023-05-24T18:02:18.199Z,13.38
2023-05-24T18:07:19.936Z,13.35
2023-05-24T18:12:22.013Z,13.33
2023-05-24T18:17:23.941Z,13.27
2023-05-24T18:22:25.848Z,13.23
2023-05-24T18:27:27.613Z,13.18
2023-05-24T18:32:29.428Z,13.15
2023-05-24T18:37:31.579Z,13.17
2023-05-24T18:42:33.465Z,13.16
2023-05-24T18:47:35.207Z,13.12
2023-05-24T18:52:37.119Z,13.08
2023-05-24T18:57:39.399Z,13.07
2023-05-24T19:02:41.412Z,13.04
2023-05-24T19:07:43.324Z,12.98
2023-05-24T19:12:45.386Z,12.93
2023-05-24T19:17:47.323Z,12.91
2023-05-24T19:22:49.265Z,12.89
2023-05-24T19:32:56.180Z,12.88
2023-05-24T19:38:03.840Z,12.86
2023-05-24T19:43:05.609Z,12.84
2023-05-24T19:48:09.510Z,12.83
2023-05-24T19:53:11.457Z,12.80
2023-05-24T19:58:13.397Z,12.78
2023-05-24T20:03:15.265Z,12.75
2023-05-24T20:08:18.147Z,12.71
2023-05-24T20:13:21.690Z,12.67
2023-05-24T20:18:23.434Z,12.66
2023-05-24T20:23:27.534Z,12.64
2023-05-24T20:28:31.833Z,12.63
2023-05-24T20:33:38.162Z,12.63
2023-05-24T20:38:40.301Z,12.63
2023-05-24T20:43:42.076Z,12.61
2023-05-24T20:48:44.946Z,12.56
2023-05-24T20:53:49.091Z,12.53
2023-05-24T20:58:53.179Z,12.52
2023-05-24T21:03:56.702Z,12.49
2023-05-24T21:09:01.180Z,12.48
2023-05-24T21:14:11.047Z,12.49
2023-05-24T21:19:12.773Z,12.52
2023-05-24T21:24:15.917Z,12.50
2023-05-24T21:29:19.219Z,12.48
2023-05-24T21:34:21.083Z,12.48
2023-05-24T21:39:23.613Z,12.50
2023-05-24T21:44:36.515Z,12.54
2023-05-24T21:49:46.093Z,12.51
2023-05-24T21:54:47.829Z,12.48
2023-05-24T21:59:49.558Z,12.47
2023-05-24T22:04:51.416Z,12.51
2023-05-24T22:09:53.153Z,12.57
2023-05-24T22:14:55.017Z,12.63
2023-05-24T22:19:57.208Z,12.70
2023-05-24T22:25:02.382Z,12.72
2023-05-24T22:30:04.339Z,12.70
2023-05-24T22:35:06.553Z,12.72
2023-05-24T22:40:09.031Z,12.69
2023-05-24T22:45:11.154Z,12.64
2023-05-24T22:50:14.087Z,12.62
2023-05-24T22:55:16.117Z,12.58
2023-05-24T23:00:18.450Z,12.50
2023-05-24T23:05:21.727Z,12.48
2023-05-24T23:10:28.451Z,12.49
2023-05-24T23:15:34.392Z,12.50
2023-05-24T23:20:40.194Z,12.50
2023-05-24T23:25:43.548Z,12.43
2023-05-24T23:30:46.093Z,12.31
2023-05-24T23:35:48.330Z,12.23
2023-05-24T23:40:51.050Z,12.25
2023-05-24T23:45:54.357Z,12.30
2023-05-24T23:50:57.428Z,12.35
2023-05-24T23:55:59.175Z,12.37
